Time;durP1;ratioP1;P1;durP2;ratioP2;P2;SDS_P1;SDS_P2;PMS_P1;PMS_P2;Temp;Humidity;BMP_temperature;BMP_pressure;BME280_temperature;BME280_humidity;BME280_pressure;Samples;Min_cycle;Max_cycle;Signal;HPM_P1;HPM_P2
2023/05/11 00:01:08;;;;;;;2.63;1.33;;;;;;;13.07;68.01;99952.06;5058011;28;20107;-57
2023/05/11 00:03:35;;;;;;;3.05;1.52;;;;;;;13.04;68.79;99962.50;5043335;28;20037;-63
2023/05/11 00:06:03;;;;;;;4.20;1.95;;;;;;;13.01;68.08;99953.03;5043955;28;20052;-58
2023/05/11 00:08:30;;;;;;;2.35;1.25;;;;;;;12.98;68.61;99958.25;5044207;28;20170;-59
2023/05/11 00:10:59;;;;;;;3.10;1.85;;;;;;;12.94;67.79;99959.19;5051823;28;20574;-56
2023/05/11 00:13:27;;;;;;;4.72;2.67;;;;;;;12.92;67.55;99960.94;5041400;28;20049;-59
2023/05/11 00:15:53;;;;;;;3.20;2.33;;;;;;;12.88;68.61;99946.25;5046670;28;20489;-55
2023/05/11 00:18:20;;;;;;;5.45;2.03;;;;;;;12.84;68.49;99953.25;5052043;28;20071;-59
2023/05/11 00:20:47;;;;;;;3.60;1.48;;;;;;;12.80;68.28;99951.59;5044668;28;20592;-57
2023/05/11 00:23:15;;;;;;;3.60;2.05;;;;;;;12.77;68.58;99956.81;5046065;28;20049;-55
2023/05/11 00:25:43;;;;;;;3.92;2.25;;;;;;;12.73;68.27;99961.16;5038822;28;20530;-58
2023/05/11 00:28:12;;;;;;;6.05;2.70;;;;;;;12.69;68.63;99964.69;5043396;28;20052;-53
2023/05/11 00:30:40;;;;;;;4.57;2.40;;;;;;;12.62;69.16;99955.25;5048784;28;20448;-56
2023/05/11 00:33:09;;;;;;;6.03;2.75;;;;;;;12.57;68.55;99956.16;5048432;28;20136;-60
2023/05/11 00:35:37;;;;;;;5.38;2.72;;;;;;;12.53;68.24;99957.09;5045450;28;20516;-51
2023/05/11 00:38:06;;;;;;;4.55;2.10;;;;;;;12.48;69.56;99953.69;5049991;28;20060;-64
2023/05/11 00:40:34;;;;;;;6.00;2.55;;;;;;;12.44;69.73;99959.81;5043655;28;20144;-63
2023/05/11 00:43:03;;;;;;;3.55;1.63;;;;;;;12.41;69.46;99962.44;5044994;28;20083;-54
2023/05/11 00:45:32;;;;;;;3.78;1.75;;;;;;;12.38;69.50;99959.88;5049398;28;20114;-58
2023/05/11 00:48:00;;;;;;;3.80;1.75;;;;;;;12.34;68.39;99961.66;5047546;28;20045;-55
2023/05/11 00:50:29;;;;;;;3.13;1.60;;;;;;;12.29;68.78;99966.91;5052280;28;20045;-57
2023/05/11 00:52:57;;;;;;;3.78;2.15;;;;;;;12.25;68.61;99965.22;5048704;28;20141;-56
2023/05/11 00:55:27;;;;;;;6.05;2.25;;;;;;;12.22;68.82;99965.25;5052683;28;20045;-54
2023/05/11 00:57:56;;;;;;;;;;;;;;;11.98;69.56;99972.38;5072417;28;20428;-57
2023/05/11 01:00:23;;;;;;;3.08;1.50;;;;;;;12.07;69.00;99967.16;5045074;28;20555;-59
2023/05/11 01:02:50;;;;;;;3.30;1.42;;;;;;;12.06;69.77;99965.41;5053434;28;20049;-51
2023/05/11 01:05:17;;;;;;;3.63;2.55;;;;;;;12.05;68.90;99963.66;5064104;28;20052;-58
2023/05/11 01:07:58;;;;;;;3.53;1.88;;;;;;;12.02;68.70;99968.88;5051539;28;20048;-53
2023/05/11 01:15:50;;;;;;;2.97;1.60;;;;;;;11.93;68.84;99964.63;5021833;27;20421;-54
2023/05/11 01:21:14;;;;;;;4.45;1.98;;;;;;;11.89;69.12;99962.94;5049790;27;20401;-58
2023/05/11 01:24:12;;;;;;;3.80;2.00;;;;;;;11.86;69.75;99964.72;5018238;28;20537;-60
2023/05/11 01:31:57;;;;;;;4.53;1.65;;;;;;;11.86;69.42;99962.13;5083539;27;20393;-57
2023/05/11 01:34:27;;;;;;;4.03;1.95;;;;;;;11.86;69.79;99964.72;5030616;28;20041;-55
2023/05/11 01:36:59;;;;;;;6.72;2.08;;;;;;;11.85;70.13;99956.06;5042613;28;20128;-55
2023/05/11 01:39:34;;;;;;;3.17;1.80;;;;;;;11.82;69.64;99962.16;5021729;28;20076;-59
2023/05/11 01:42:07;;;;;;;4.15;1.90;;;;;;;11.82;69.95;99962.16;5019022;28;20057;-59
2023/05/11 01:44:36;;;;;;;5.10;1.90;;;;;;;11.82;69.21;99967.34;5018683;28;20501;-51
2023/05/11 01:47:04;;;;;;;3.35;1.67;;;;;;;11.83;69.74;99969.03;5056580;28;20520;-60
2023/05/11 01:49:34;;;;;;;5.53;2.05;;;;;;;11.81;69.88;99970.81;5031026;28;20045;-58
2023/05/11 01:52:02;;;;;;;9.07;1.98;;;;;;;11.77;70.27;99974.31;5043190;28;20110;-59
2023/05/11 01:54:30;;;;;;;3.72;1.58;;;;;;;11.76;69.84;99974.31;5025624;28;20141;-58
2023/05/11 01:56:59;;;;;;;3.90;2.10;;;;;;;11.76;68.94;99976.91;5025565;28;20087;-53
2023/05/11 01:59:27;;;;;;;4.28;1.92;;;;;;;11.75;69.14;99975.22;5036090;28;20102;-60
2023/05/11 02:01:55;;;;;;;4.13;2.10;;;;;;;11.74;69.24;99973.47;5041243;28;20064;-56
2023/05/11 02:04:23;;;;;;;5.20;2.25;;;;;;;11.73;69.58;99977.81;5048823;28;20072;-55
2023/05/11 02:06:51;;;;;;;3.65;1.88;;;;;;;11.71;69.71;99976.94;5039902;28;20073;-52
2023/05/11 02:09:20;;;;;;;4.63;1.83;;;;;;;11.70;69.05;99972.63;5049599;28;20527;-52
2023/05/11 02:11:49;;;;;;;3.50;1.95;;;;;;;11.68;70.23;99984.75;5043041;28;20077;-56
2023/05/11 02:14:19;;;;;;;4.25;2.53;;;;;;;11.67;69.63;99983.03;5049715;28;20076;-55
2023/05/11 02:16:47;;;;;;;5.25;2.78;;;;;;;11.66;70.00;99991.69;5038916;28;20064;-57
2023/05/11 02:19:15;;;;;;;2.80;1.67;;;;;;;11.64;69.84;99993.44;5045773;28;20115;-59
2023/05/11 02:21:42;;;;;;;4.57;2.25;;;;;;;11.62;70.15;99995.19;5041366;28;20471;-55
2023/05/11 02:24:10;;;;;;;3.60;1.80;;;;;;;11.61;69.82;99993.44;5043712;28;20118;-59
2023/05/11 02:26:36;;;;;;;4.35;1.80;;;;;;;11.59;69.63;99996.09;5043107;28;20053;-55
2023/05/11 02:29:03;;;;;;;2.75;1.70;;;;;;;11.58;70.32;100002.13;5042118;28;20055;-58
2023/05/11 02:31:35;;;;;;;4.50;1.90;;;;;;;11.55;70.01;99995.22;5044380;28;20045;-59
2023/05/11 02:34:07;;;;;;;5.70;1.60;;;;;;;11.54;69.16;100000.44;5045772;28;20044;-55
2023/05/11 02:36:37;;;;;;;3.97;1.70;;;;;;;11.52;68.89;100004.78;5036503;28;20144;-53
2023/05/11 02:39:08;;;;;;;3.97;1.75;;;;;;;11.49;68.93;100003.06;5042170;28;20069;-58
2023/05/11 02:41:40;;;;;;;2.88;2.00;;;;;;;11.46;70.06;100003.09;5040450;28;20118;-57
2023/05/11 02:44:11;;;;;;;6.10;1.77;;;;;;;11.45;69.53;100003.94;5030917;28;20046;-54
2023/05/11 02:46:39;;;;;;;3.10;1.95;;;;;;;11.44;69.06;100007.41;5026672;28;20422;-54
2023/05/11 02:49:09;;;;;;;4.55;1.52;;;;;;;11.43;70.06;100005.69;5031600;28;20099;-54
2023/05/11 02:51:37;;;;;;;3.10;1.45;;;;;;;11.42;69.62;100009.19;5031753;28;22035;-56
2023/05/11 02:54:06;;;;;;;3.38;1.38;;;;;;;11.41;70.02;100010.03;5031560;28;20468;-51
2023/05/11 02:56:34;;;;;;;4.93;1.70;;;;;;;11.38;70.45;100000.53;5027848;28;20049;-56
2023/05/11 02:59:02;;;;;;;7.53;1.92;;;;;;;11.39;68.98;100009.19;5026883;28;20100;-57
2023/05/11 03:01:28;;;;;;;4.10;2.10;;;;;;;11.38;70.43;100012.66;5031057;28;20739;-56
2023/05/11 03:03:56;;;;;;;5.32;1.83;;;;;;;11.37;69.15;100010.91;5028243;28;20501;-54
2023/05/11 03:06:24;;;;;;;3.42;1.90;;;;;;;11.35;69.63;100010.09;5031157;28;20051;-57
2023/05/11 03:08:51;;;;;;;2.95;1.90;;;;;;;11.32;69.72;100014.41;5024090;28;20049;-55
2023/05/11 03:11:20;;;;;;;6.30;2.10;;;;;;;11.31;70.55;100014.41;5030789;28;20061;-54
2023/05/11 03:13:46;;;;;;;5.78;2.50;;;;;;;11.28;69.18;100017.88;5037010;28;20111;-62
2023/05/11 03:16:13;;;;;;;3.47;2.13;;;;;;;11.27;70.08;100020.50;5034108;28;20084;-55
2023/05/11 03:18:41;;;;;;;3.83;1.95;;;;;;;11.25;70.52;100017.06;5020669;28;20415;-57
2023/05/11 03:21:08;;;;;;;4.75;2.42;;;;;;;11.23;70.14;100018.78;5028591;28;20496;-54
2023/05/11 03:23:36;;;;;;;6.03;2.90;;;;;;;11.22;70.15;100015.34;5027462;28;20103;-62
2023/05/11 03:26:05;;;;;;;5.55;3.22;;;;;;;11.19;69.54;100015.38;5027989;28;20049;-60
2023/05/11 03:28:34;;;;;;;4.03;1.77;;;;;;;11.19;69.37;100023.16;5029041;28;20084;-61
2023/05/11 03:31:01;;;;;;;4.15;1.83;;;;;;;11.16;70.08;100023.16;5028387;28;20068;-58
2023/05/11 03:33:28;;;;;;;4.82;2.97;;;;;;;11.15;70.99;100016.25;5026652;28;20421;-58
2023/05/11 03:35:57;;;;;;;5.70;1.90;;;;;;;11.13;69.63;100024.03;5027062;28;20437;-58
2023/05/11 03:38:27;;;;;;;4.97;2.20;;;;;;;11.12;70.03;100017.13;5024045;28;20501;-56
2023/05/11 03:40:55;;;;;;;4.65;2.40;;;;;;;11.10;70.48;100013.69;5025749;28;20045;-55
2023/05/11 03:43:22;;;;;;;4.35;2.05;;;;;;;11.08;69.81;100009.38;5023317;28;20048;-55
2023/05/11 03:45:51;;;;;;;7.07;2.40;;;;;;;11.08;70.85;100014.56;5024192;28;20056;-52
2023/05/11 03:48:19;;;;;;;6.38;2.15;;;;;;;11.08;71.07;100017.16;5024371;28;20041;-56
2023/05/11 03:50:47;;;;;;;7.50;2.65;;;;;;;11.07;70.80;100008.50;5024348;28;20444;-61
2023/05/11 03:53:15;;;;;;;5.10;3.83;;;;;;;11.08;70.82;100014.56;5021272;28;20382;-60
2023/05/11 03:55:42;;;;;;;4.72;2.17;;;;;;;11.05;70.36;100011.09;5025963;28;20502;-58
2023/05/11 03:58:09;;;;;;;4.43;2.15;;;;;;;11.04;71.31;100014.56;5029680;28;20472;-58
2023/05/11 04:00:39;;;;;;;7.78;2.58;;;;;;;11.04;71.31;100009.38;5035024;28;20489;-56
2023/05/11 04:03:08;;;;;;;5.65;3.63;;;;;;;11.04;71.25;100013.69;5022770;28;20399;-59
2023/05/11 04:05:35;;;;;;;6.75;3.00;;;;;;;11.03;70.94;100007.69;5024958;28;20041;-54
2023/05/11 04:08:03;;;;;;;6.22;2.83;;;;;;;11.05;71.05;100010.25;5027959;28;20053;-55
2023/05/11 04:10:29;;;;;;;5.43;2.60;;;;;;;11.03;70.65;100012.84;5025760;28;20053;-56
2023/05/11 04:12:56;;;;;;;4.82;2.95;;;;;;;11.05;70.77;100011.09;5030433;28;20045;-52
2023/05/11 04:15:23;;;;;;;7.18;3.17;;;;;;;11.05;71.30;100016.28;5029844;28;20049;-56
2023/05/11 04:17:50;;;;;;;4.95;2.72;;;;;;;11.04;71.16;100014.56;5034546;28;20727;-51
2023/05/11 04:20:16;;;;;;;6.28;3.08;;;;;;;11.05;71.23;100016.28;5036380;28;20045;-58
2023/05/11 04:22:44;;;;;;;9.10;2.88;;;;;;;11.05;71.78;100010.25;5026094;28;20046;-60
2023/05/11 04:25:12;;;;;;;8.82;2.97;;;;;;;11.05;71.22;100010.25;5027720;28;20045;-54
2023/05/11 04:27:39;;;;;;;5.13;2.67;;;;;;;11.05;71.63;100005.91;5032194;28;20049;-54
2023/05/11 04:30:07;;;;;;;7.68;2.95;;;;;;;11.07;71.96;100012.84;5023913;28;20045;-59
2023/05/11 04:32:34;;;;;;;8.52;3.40;;;;;;;11.05;71.69;100005.91;5028341;28;20106;-57
2023/05/11 04:35:02;;;;;;;9.13;3.40;;;;;;;11.04;72.07;100006.78;5028646;28;20049;-61
2023/05/11 04:37:29;;;;;;;6.43;2.60;;;;;;;11.04;71.34;100000.75;5018026;28;20499;-58
2023/05/11 04:39:56;;;;;;;8.75;3.25;;;;;;;11.05;71.13;100005.91;5017100;28;20049;-59
2023/05/11 04:42:23;;;;;;;9.30;3.42;;;;;;;11.04;71.80;100009.38;5024100;28;20056;-59
2023/05/11 04:44:53;;;;;;;9.30;3.80;;;;;;;11.07;71.38;100007.66;5024051;28;20069;-54
2023/05/11 04:47:20;;;;;;;7.50;2.85;;;;;;;11.06;72.09;100011.97;5024464;28;20041;-61
2023/05/11 04:49:47;;;;;;;9.07;3.83;;;;;;;11.07;71.54;100015.44;5027503;28;20102;-52
2023/05/11 04:52:14;;;;;;;7.43;3.55;;;;;;;11.09;71.53;100016.28;5030103;28;20047;-59
2023/05/11 04:54:40;;;;;;;6.88;3.33;;;;;;;11.10;72.36;100007.63;5029371;28;20060;-58
2023/05/11 04:57:07;;;;;;;11.85;3.35;;;;;;;11.13;71.39;100017.97;5026059;28;20102;-58
2023/05/11 04:59:34;;;;;;;10.50;3.88;;;;;;;11.15;71.09;100021.44;5023691;28;20042;-59
2023/05/11 05:02:01;;;;;;;8.68;3.28;;;;;;;11.19;71.62;100023.16;5034050;28;20081;-59
2023/05/11 05:04:29;;;;;;;9.98;4.07;;;;;;;11.23;71.85;100029.16;5032804;28;20046;-58
2023/05/11 05:07:01;;;;;;;8.73;3.13;;;;;;;11.24;72.26;100030.88;5027284;28;20115;-59
2023/05/11 05:09:27;;;;;;;6.88;3.45;;;;;;;11.26;71.44;100037.78;5025992;28;20049;-60
2023/05/11 05:11:54;;;;;;;7.05;2.90;;;;;;;11.29;71.34;100040.34;5029034;28;20065;-55
2023/05/11 05:14:21;;;;;;;12.63;4.43;;;;;;;11.32;71.92;100042.94;5021891;28;20045;-58
2023/05/11 05:16:48;;;;;;;7.65;3.28;;;;;;;11.35;71.71;100044.63;5021158;28;20044;-54
2023/05/11 05:19:15;;;;;;;12.10;3.83;;;;;;;11.38;71.27;100043.78;5022851;28;20053;-57
2023/05/11 05:21:41;;;;;;;13.82;3.72;;;;;;;11.40;71.55;100047.22;5023609;28;20552;-53
2023/05/11 05:24:10;;;;;;;9.30;3.78;;;;;;;11.42;71.88;100050.66;5024916;28;20061;-54
2023/05/11 05:26:37;;;;;;;12.32;3.40;;;;;;;11.45;71.63;100050.63;5022187;28;20041;-61
2023/05/11 05:29:04;;;;;;;8.43;3.75;;;;;;;11.47;71.77;100054.09;5023903;28;20136;-57
2023/05/11 05:31:31;;;;;;;9.23;3.40;;;;;;;11.51;71.47;100057.50;5022444;28;20128;-53
2023/05/11 05:33:58;;;;;;;7.28;3.22;;;;;;;11.53;72.28;100061.84;5026295;28;20064;-60
2023/05/11 05:36:24;;;;;;;8.43;3.22;;;;;;;11.57;71.81;100050.56;5029306;28;20676;-55
2023/05/11 05:38:51;;;;;;;7.72;3.20;;;;;;;11.61;71.25;100056.59;5025025;28;20051;-51
2023/05/11 05:41:18;;;;;;;10.98;4.80;;;;;;;11.65;72.18;100057.44;5026902;28;20452;-55
2023/05/11 05:43:45;;;;;;;10.52;3.20;;;;;;;11.68;71.41;100058.25;5026884;28;20065;-58
2023/05/11 05:46:11;;;;;;;12.18;3.42;;;;;;;11.74;71.26;100064.28;5027817;28;20080;-54
2023/05/11 05:48:38;;;;;;;10.45;3.20;;;;;;;11.78;72.17;100064.25;5023023;28;21979;-56
2023/05/11 05:51:05;;;;;;;11.85;4.20;;;;;;;11.81;72.24;100064.22;5023963;28;20103;-59
2023/05/11 05:53:31;;;;;;;7.55;3.15;;;;;;;11.87;71.48;100073.69;5026764;28;20046;-57
2023/05/11 05:55:58;;;;;;;12.10;3.22;;;;;;;11.91;72.54;100075.41;5022960;28;20049;-56
2023/05/11 05:58:24;;;;;;;8.88;3.85;;;;;;;11.97;71.80;100074.50;5021324;28;20075;-59
2023/05/11 06:00:51;;;;;;;8.43;3.20;;;;;;;12.02;71.44;100072.72;5021815;28;20054;-57
2023/05/11 06:03:19;;;;;;;7.97;3.63;;;;;;;12.07;71.65;100076.19;5022912;28;20435;-60
2023/05/11 06:05:46;;;;;;;10.10;4.03;;;;;;;12.10;71.94;100070.09;5025200;28;20049;-60
2023/05/11 06:08:12;;;;;;;8.85;3.35;;;;;;;12.13;71.43;100069.19;5021165;28;20103;-56
2023/05/11 06:10:39;;;;;;;10.20;3.45;;;;;;;12.17;72.07;100069.16;5023987;28;22452;-56
2023/05/11 06:13:07;;;;;;;6.10;3.20;;;;;;;12.21;72.18;100075.19;5018169;28;20053;-56
2023/05/11 06:15:33;;;;;;;10.98;3.15;;;;;;;12.22;71.75;100079.50;5021123;28;20057;-55
2023/05/11 06:18:00;;;;;;;10.20;3.50;;;;;;;12.26;72.17;100076.00;5022408;28;20501;-61
2023/05/11 06:20:27;;;;;;;7.97;3.40;;;;;;;12.27;72.12;100072.53;5027234;28;20127;-60
2023/05/11 06:22:54;;;;;;;9.98;3.00;;;;;;;12.32;72.04;100083.75;5028167;28;20489;-55
2023/05/11 06:25:21;;;;;;;7.63;3.28;;;;;;;12.36;71.77;100081.13;5026259;28;20057;-58
2023/05/11 06:27:48;;;;;;;11.27;3.40;;;;;;;12.39;71.59;100087.13;5027154;28;20053;-57
2023/05/11 06:30:14;;;;;;;9.57;3.03;;;;;;;12.41;72.57;100087.13;5025318;28;20048;-58
2023/05/11 06:32:42;;;;;;;8.10;3.50;;;;;;;12.46;72.15;100090.53;5025210;28;20104;-63
2023/05/11 06:35:09;;;;;;;11.38;3.58;;;;;;;12.54;72.04;100091.34;5025320;28;20505;-56
2023/05/11 06:37:35;;;;;;;11.60;3.40;;;;;;;12.65;72.48;100087.75;5026277;28;20067;-57
2023/05/11 06:40:02;;;;;;;6.65;2.95;;;;;;;12.75;72.31;100089.38;5020154;28;20057;-55
2023/05/11 06:42:29;;;;;;;11.85;3.20;;;;;;;12.83;72.08;100092.75;5022673;28;20049;-54
2023/05/11 06:44:56;;;;;;;7.72;2.80;;;;;;;12.95;71.90;100102.16;5021311;28;20057;-54
2023/05/11 06:47:23;;;;;;;7.88;2.92;;;;;;;13.04;71.01;100095.94;5022100;28;20045;-60
2023/05/11 06:49:50;;;;;;;8.32;2.85;;;;;;;13.14;72.17;100090.66;5024526;28;20053;-58
2023/05/11 06:52:16;;;;;;;9.23;3.30;;;;;;;13.28;71.21;100091.34;5024500;28;20573;-59
2023/05/11 06:54:43;;;;;;;9.95;2.75;;;;;;;13.45;71.91;100095.44;5025989;28;20054;-58
2023/05/11 06:57:10;;;;;;;8.95;3.05;;;;;;;13.67;72.05;100098.63;5024830;28;20103;-63
2023/05/11 06:59:39;;;;;;;8.38;2.75;;;;;;;13.98;72.30;100089.47;5022827;28;20087;-58
2023/05/11 07:02:06;;;;;;;4.85;2.10;;;;;;;14.27;71.14;100095.94;5027060;28;20041;-54
2023/05/11 07:04:33;;;;;;;8.10;2.47;;;;;;;14.47;71.32;100086.91;5024676;28;20056;-63
2023/05/11 07:07:00;;;;;;;6.70;2.38;;;;;;;14.65;70.51;100094.41;5021638;28;20507;-54
2023/05/11 07:09:27;;;;;;;8.63;2.30;;;;;;;14.88;70.63;100093.13;5023022;28;20063;-61
2023/05/11 07:11:54;;;;;;;6.70;2.38;;;;;;;15.35;71.21;100097.38;5023700;28;20050;-61
2023/05/11 07:14:21;;;;;;;5.28;2.38;;;;;;;15.76;70.44;100094.72;5023109;28;20049;-58
2023/05/11 07:16:51;;;;;;;5.95;2.22;;;;;;;15.91;68.94;100103.94;5022775;28;20053;-52
2023/05/11 07:19:19;;;;;;;8.43;2.05;;;;;;;16.00;68.54;100099.41;5023748;28;20132;-61
2023/05/11 07:21:45;;;;;;;7.10;1.83;;;;;;;16.03;67.96;100107.19;5027060;28;20049;-56
2023/05/11 07:24:12;;;;;;;6.65;2.60;;;;;;;16.02;67.81;100106.34;5024928;28;20054;-56
2023/05/11 07:26:41;;;;;;;4.32;1.98;;;;;;;16.07;67.35;100111.44;5027930;28;20091;-60
2023/05/11 07:29:08;;;;;;;7.60;2.78;;;;;;;16.14;67.63;100113.00;5023281;28;20072;-59
2023/05/11 07:31:35;;;;;;;4.28;2.63;;;;;;;16.33;67.84;100112.53;5024647;28;20840;-62
2023/05/11 07:34:03;;;;;;;4.20;2.60;;;;;;;16.53;67.00;100109.41;5025487;28;20064;-59
2023/05/11 07:36:30;;;;;;;5.00;1.92;;;;;;;16.72;67.29;100108.88;5021228;28;20052;-62
2023/05/11 07:39:00;;;;;;;5.10;2.15;;;;;;;16.91;66.56;100111.00;5028755;28;20057;-52
2023/05/11 07:41:27;;;;;;;6.88;2.38;;;;;;;17.11;66.68;100109.59;5035084;28;20049;-62
2023/05/11 07:43:54;;;;;;;9.05;3.25;;;;;;;17.33;66.22;100115.09;5034631;28;20045;-59
2023/05/11 07:46:21;;;;;;;6.45;2.20;;;;;;;17.51;65.53;100115.41;5021166;28;20209;-55
2023/05/11 07:48:47;;;;;;;5.18;2.50;;;;;;;17.49;65.11;100114.63;5036195;28;20099;-62
2023/05/11 07:51:21;;;;;;;5.68;2.55;;;;;;;17.40;64.78;100119.22;5026337;28;20553;-62
2023/05/11 07:53:49;;;;;;;6.25;2.67;;;;;;;17.33;64.49;100125.56;5027421;28;20140;-53
2023/05/11 07:56:18;;;;;;;6.30;3.08;;;;;;;17.35;64.04;100123.72;5029060;28;20052;-56
2023/05/11 07:58:45;;;;;;;4.07;2.45;;;;;;;17.42;64.90;100130.50;5026874;28;20084;-61
2023/05/11 08:01:12;;;;;;;5.28;2.30;;;;;;;17.53;64.14;100127.53;5029695;28;20076;-59
2023/05/11 08:03:38;;;;;;;8.70;2.83;;;;;;;17.64;64.57;100135.09;5027115;28;20049;-58
2023/05/11 08:06:05;;;;;;;5.53;2.63;;;;;;;17.70;64.07;100132.25;5020166;28;20050;-62
2023/05/11 08:08:32;;;;;;;7.75;3.17;;;;;;;17.78;64.24;100131.19;5031762;28;20131;-66
2023/05/11 08:11:00;;;;;;;6.97;2.53;;;;;;;17.79;63.52;100133.75;5036580;28;20520;-60
2023/05/11 08:13:27;;;;;;;5.53;2.25;;;;;;;17.83;63.62;100134.50;5030572;28;20520;-65
2023/05/11 08:15:53;;;;;;;6.78;2.45;;;;;;;17.89;63.83;100136.94;5031452;28;20037;-56
2023/05/11 08:18:20;;;;;;;5.10;2.72;;;;;;;18.00;63.54;100136.56;5032807;28;20612;-56
2023/05/11 08:20:47;;;;;;;7.95;3.58;;;;;;;18.14;62.75;100138.81;5027124;28;20443;-53
2023/05/11 08:23:17;;;;;;;3.63;2.38;;;;;;;18.16;62.30;100131.72;5026200;28;20049;-60
2023/05/11 08:25:48;;;;;;;4.20;2.65;;;;;;;18.16;62.23;100136.97;5029754;28;20071;-60
2023/05/11 08:28:15;;;;;;;5.40;2.05;;;;;;;18.15;62.59;100139.66;5029197;28;20568;-60
2023/05/11 08:30:42;;;;;;;5.63;2.28;;;;;;;18.13;62.09;100137.06;5022161;28;21759;-59
2023/05/11 08:33:08;;;;;;;5.68;3.47;;;;;;;18.09;62.30;100140.69;5029971;28;20800;-60
2023/05/11 08:35:55;;;;;;;3.50;1.60;;;;;;;18.04;61.85;100142.59;5030124;28;20052;-57
2023/05/11 08:38:22;;;;;;;5.20;2.53;;;;;;;18.08;62.60;100144.19;5026548;28;20073;-56
2023/05/11 08:40:51;;;;;;;3.95;1.83;;;;;;;18.19;62.72;100141.25;5024794;28;20068;-59
2023/05/11 08:43:18;;;;;;;5.20;1.98;;;;;;;18.26;61.79;100141.91;5026267;28;20588;-61
2023/05/11 08:45:48;;;;;;;3.80;1.88;;;;;;;18.27;61.52;100143.63;5028118;28;20114;-61
2023/05/11 08:48:19;;;;;;;4.50;1.80;;;;;;;18.28;61.50;100145.34;5030522;28;20053;-59
2023/05/11 08:50:46;;;;;;;3.03;1.80;;;;;;;18.23;61.57;100135.88;5026293;28;20547;-57
2023/05/11 08:53:13;;;;;;;5.53;2.10;;;;;;;18.19;61.22;100142.13;5026484;28;20044;-57
2023/05/11 08:55:41;;;;;;;3.08;2.78;;;;;;;18.16;61.00;100143.97;5030101;28;20398;-62
2023/05/11 08:58:09;;;;;;;4.40;1.98;;;;;;;18.16;61.29;100143.97;5031874;28;20418;-56
2023/05/11 09:00:36;;;;;;;5.05;2.67;;;;;;;18.19;61.98;100136.00;5024846;28;20073;-57
2023/05/11 09:03:03;;;;;;;5.32;2.70;;;;;;;18.30;61.71;100148.78;5023623;28;20079;-58
2023/05/11 09:05:31;;;;;;;7.95;2.90;;;;;;;18.49;61.56;100144.63;5018986;28;20478;-60
2023/05/11 09:08:01;;;;;;;4.55;2.28;;;;;;;18.65;61.77;100143.22;5022977;28;20053;-64
2023/05/11 09:10:27;;;;;;;;;;;;;;;18.60;61.39;100141.63;5028587;28;20079;-63
2023/05/11 09:12:54;;;;;;;3.00;2.70;;;;;;;18.65;60.74;100146.72;5028573;28;19987;-58
2023/05/11 09:15:21;;;;;;;5.43;2.35;;;;;;;18.53;59.86;100150.59;5025821;28;20099;-61
2023/05/11 09:17:47;;;;;;;6.05;2.70;;;;;;;18.33;60.52;100148.66;5027879;28;20057;-66
2023/05/11 09:20:14;;;;;;;3.92;2.38;;;;;;;18.13;60.27;100147.56;5026068;28;20041;-61
2023/05/11 09:22:43;;;;;;;4.55;2.25;;;;;;;18.03;60.65;100152.22;5024301;28;20049;-64
2023/05/11 09:25:12;;;;;;;6.13;2.10;;;;;;;17.93;61.35;100153.44;5026910;28;20069;-53
2023/05/11 09:27:41;;;;;;;5.72;1.88;;;;;;;17.84;61.40;100151.94;5027668;28;20061;-61
2023/05/11 09:32:50;;;;;;;6.13;3.13;;;;;;;17.74;61.07;100156.63;5036742;27;20399;-64
2023/05/11 09:35:19;;;;;;;4.68;3.33;;;;;;;17.75;61.48;100152.22;5019611;28;20508;-58
2023/05/11 09:40:34;;;;;;;5.18;2.63;;;;;;;18.20;59.88;100154.31;5070143;27;20394;-57
2023/05/11 09:43:02;;;;;;;4.55;2.30;;;;;;;18.16;60.11;100151.84;4998028;28;20140;-60
2023/05/11 09:51:00;;;;;;;3.28;1.98;;;;;;;18.45;59.89;100158.75;5021723;27;20522;-58
2023/05/11 09:53:44;;;;;;;3.15;1.67;;;;;;;18.54;59.90;100157.56;5001954;28;20057;-55
2023/05/11 09:56:12;;;;;;;4.38;1.98;;;;;;;18.68;59.71;100154.44;5007618;28;20050;-63
2023/05/11 09:58:50;;;;;;;3.85;2.45;;;;;;;18.74;59.05;100154.25;5016885;28;20053;-58
2023/05/11 10:01:28;;;;;;;4.38;2.10;;;;;;;18.79;58.36;100145.34;5030512;28;20459;-52
2023/05/11 10:03:54;;;;;;;9.77;2.47;;;;;;;18.91;58.70;100155.41;5002835;28;20065;-48
2023/05/11 10:06:51;;;;;;;4.90;1.75;;;;;;;19.08;57.72;100152.22;4994562;28;20149;-47
2023/05/11 10:09:23;;;;;;;3.13;1.75;;;;;;;19.22;58.19;100148.22;5000601;28;20553;-54
2023/05/11 10:11:52;;;;;;;3.72;1.98;;;;;;;19.39;58.47;100150.22;4996810;28;20053;-54
2023/05/11 10:14:18;;;;;;;3.00;1.58;;;;;;;19.60;57.82;100152.94;5002359;28;20100;-50
2023/05/11 10:16:46;;;;;;;3.13;2.63;;;;;;;19.61;56.79;100157.25;5001130;28;20494;-59
2023/05/11 10:19:13;;;;;;;2.80;1.40;;;;;;;19.72;57.60;100156.88;4998412;28;20042;-52
2023/05/11 10:21:40;;;;;;;5.97;1.88;;;;;;;19.93;57.29;100160.41;5011987;28;20084;-54
2023/05/11 10:24:08;;;;;;;5.43;1.77;;;;;;;20.08;56.72;100158.94;5000392;28;20127;-51
2023/05/11 10:26:37;;;;;;;3.85;1.83;;;;;;;20.16;56.27;100156.00;5000617;28;20132;-56
2023/05/11 10:29:04;;;;;;;4.95;1.92;;;;;;;20.29;56.01;100151.94;4999215;28;20050;-50
2023/05/11 10:31:31;;;;;;;3.33;1.45;;;;;;;20.44;55.90;100154.88;4997046;28;20054;-51
2023/05/11 10:34:00;;;;;;;3.47;1.83;;;;;;;20.50;55.77;100159.84;5001226;28;20058;-57
2023/05/11 10:36:27;;;;;;;2.72;2.03;;;;;;;20.56;55.54;100158.72;5011616;28;20077;-56
2023/05/11 10:38:53;;;;;;;2.22;1.85;;;;;;;20.60;55.23;100164.72;4997994;28;20058;-57
2023/05/11 10:50:15;;;;;;;3.28;1.58;;;;;;;20.16;54.21;100158.63;5052222;27;20396;-57
2023/05/11 11:01:43;;;;;;;5.40;3.28;;;;;;;19.60;55.27;100164.31;5078737;27;20399;-59
2023/05/11 11:04:12;;;;;;;3.85;3.33;;;;;;;19.71;56.03;100156.00;5047846;28;20136;-54
2023/05/11 11:06:42;;;;;;;3.70;1.15;;;;;;;19.86;55.58;100158.94;5057752;28;20430;-55
2023/05/11 11:09:12;;;;;;;2.47;1.60;;;;;;;20.14;55.74;100158.72;5051717;28;20777;-59
2023/05/11 11:14:16;;;;;;;1.10;0.82;;;;;;;20.98;54.82;100159.59;5047063;28;20873;-56
2023/05/11 11:19:56;;;;;;;1.42;0.55;;;;;;;21.43;52.94;100148.78;5055383;27;20388;-58
2023/05/11 11:25:53;;;;;;;2.58;2.30;;;;;;;22.06;51.47;100152.84;5061709;28;20391;-53
2023/05/11 11:28:19;;;;;;;0.88;0.50;;;;;;;22.21;50.42;100145.09;5029294;28;20537;-59
2023/05/11 11:30:46;;;;;;;1.90;1.80;;;;;;;22.28;49.90;100146.50;5022440;28;20045;-58
2023/05/11 11:35:49;;;;;;;1.08;0.98;;;;;;;22.42;50.80;100143.16;5042622;27;20394;-56
2023/05/11 11:38:19;;;;;;;3.40;2.08;;;;;;;22.57;50.56;100146.84;5016689;28;20456;-57
2023/05/11 11:43:27;;;;;;;3.55;2.55;;;;;;;22.83;50.46;100136.69;5056605;27;20407;-58
2023/05/11 11:45:57;;;;;;;2.03;1.70;;;;;;;22.95;49.83;100136.97;5003400;28;20558;-57
2023/05/11 11:48:41;;;;;;;2.65;1.73;;;;;;;22.90;49.69;100137.22;4999339;28;20050;-60
2023/05/11 11:51:10;;;;;;;2.22;1.65;;;;;;;22.76;48.82;100130.03;5003044;28;20045;-59
2023/05/11 12:01:35;;;;;;;3.83;3.53;;;;;;;22.60;49.83;100128.19;5051487;27;20914;-56
2023/05/11 12:06:43;;;;;;;2.85;1.50;;;;;;;22.87;49.99;100131.25;5024363;28;20418;-60
2023/05/11 12:09:10;;;;;;;2.78;1.50;;;;;;;22.92;50.24;100137.13;5005977;28;20549;-59
2023/05/11 12:11:37;;;;;;;1.17;0.75;;;;;;;23.01;49.06;100134.03;5015818;28;20050;-62
2023/05/11 12:14:08;;;;;;;1.42;1.17;;;;;;;23.12;49.41;100133.44;5016545;28;20038;-59
2023/05/11 12:16:35;;;;;;;0.85;0.75;;;;;;;23.26;49.18;100131.84;5016261;28;20046;-61
2023/05/11 12:19:03;;;;;;;0.80;0.73;;;;;;;23.35;49.01;100131.34;5012326;28;20386;-54
2023/05/11 12:21:31;;;;;;;1.00;0.90;;;;;;;23.44;47.67;100136.13;5016745;28;20104;-63
2023/05/11 12:24:00;;;;;;;1.15;0.88;;;;;;;23.41;47.21;100132.81;5017063;28;20391;-61
2023/05/11 12:26:28;;;;;;;1.05;0.90;;;;;;;23.28;46.26;100140.53;5015573;28;20464;-63
2023/05/11 12:29:13;;;;;;;0.82;0.82;;;;;;;23.02;45.08;100134.84;5011346;28;20057;-62
2023/05/11 12:31:42;;;;;;;0.60;0.52;;;;;;;22.89;46.18;100138.16;5008750;28;20104;-59
2023/05/11 12:34:18;;;;;;;0.80;0.47;;;;;;;22.89;46.90;100135.53;5008816;28;20546;-61
2023/05/11 12:36:46;;;;;;;0.60;0.52;;;;;;;23.08;47.16;100140.69;5011138;28;20061;-60
2023/05/11 12:39:22;;;;;;;0.77;0.77;;;;;;;23.26;46.08;100143.25;5019911;28;20608;-61